sensor_id;sensor_type;location;lat;lon;timestamp;P1;durP1;ratioP1;P2;durP2;ratioP2
22632;SDS011;11483;55.828;37.488;2022-08-19T00:00:04;18.35;;;6.50;;
22632;SDS011;11483;55.828;37.488;2022-08-19T00:02:34;19.67;;;7.50;;
22632;SDS011;11483;55.828;37.488;2022-08-19T00:05:00;14.30;;;6.68;;
22632;SDS011;11483;55.828;37.488;2022-08-19T00:07:27;24.20;;;7.47;;
22632;SDS011;11483;55.828;37.488;2022-08-19T00:09:52;22.02;;;6.80;;
22632;SDS011;11483;55.828;37.488;2022-08-19T00:12:18;10.95;;;6.22;;
22632;SDS011;11483;55.828;37.488;2022-08-19T00:14:44;16.63;;;6.60;;
22632;SDS011;11483;55.828;37.488;2022-08-19T00:17:10;13.40;;;6.80;;
22632;SDS011;11483;55.828;37.488;2022-08-19T00:19:36;20.25;;;6.32;;
22632;SDS011;11483;55.828;37.488;2022-08-19T00:22:02;23.15;;;6.53;;
22632;SDS011;11483;55.828;37.488;2022-08-19T00:24:30;14.38;;;6.22;;
22632;SDS011;11483;55.828;37.488;2022-08-19T00:26:57;18.05;;;6.63;;
22632;SDS011;11483;55.828;37.488;2022-08-19T00:29:24;13.88;;;6.38;;
22632;SDS011;11483;55.828;37.488;2022-08-19T00:31:50;18.77;;;6.95;;
22632;SDS011;11483;55.828;37.488;2022-08-19T00:34:21;14.98;;;6.88;;
22632;SDS011;11483;55.828;37.488;2022-08-19T00:36:47;15.75;;;6.82;;
22632;SDS011;11483;55.828;37.488;2022-08-19T00:39:14;14.40;;;7.10;;
22632;SDS011;11483;55.828;37.488;2022-08-19T00:41:42;19.63;;;7.22;;
22632;SDS011;11483;55.828;37.488;2022-08-19T00:46:41;19.02;;;7.32;;
22632;SDS011;11483;55.828;37.488;2022-08-19T00:51:52;14.25;;;7.13;;
22632;SDS011;11483;55.828;37.488;2022-08-19T00:54:22;20.17;;;8.02;;
22632;SDS011;11483;55.828;37.488;2022-08-19T00:56:49;15.05;;;7.70;;
22632;SDS011;11483;55.828;37.488;2022-08-19T00:59:16;21.58;;;8.20;;
22632;SDS011;11483;55.828;37.488;2022-08-19T01:01:43;27.95;;;8.15;;
22632;SDS011;11483;55.828;37.488;2022-08-19T01:04:11;29.38;;;7.88;;
22632;SDS011;11483;55.828;37.488;2022-08-19T01:06:37;15.05;;;7.97;;
22632;SDS011;11483;55.828;37.488;2022-08-19T01:09:06;18.20;;;8.15;;
22632;SDS011;11483;55.828;37.488;2022-08-19T01:11:33;22.08;;;8.27;;
22632;SDS011;11483;55.828;37.488;2022-08-19T01:14:03;29.45;;;8.27;;
22632;SDS011;11483;55.828;37.488;2022-08-19T01:16:30;22.83;;;8.10;;
22632;SDS011;11483;55.828;37.488;2022-08-19T01:18:58;22.95;;;8.65;;
22632;SDS011;11483;55.828;37.488;2022-08-19T01:21:36;24.90;;;8.40;;
22632;SDS011;11483;55.828;37.488;2022-08-19T01:24:18;25.55;;;9.18;;
22632;SDS011;11483;55.828;37.488;2022-08-19T01:26:44;32.72;;;8.80;;
22632;SDS011;11483;55.828;37.488;2022-08-19T01:29:11;23.10;;;8.57;;
22632;SDS011;11483;55.828;37.488;2022-08-19T01:31:37;17.33;;;8.02;;
22632;SDS011;11483;55.828;37.488;2022-08-19T01:34:04;20.73;;;9.07;;
22632;SDS011;11483;55.828;37.488;2022-08-19T01:39:03;17.05;;;9.20;;
22632;SDS011;11483;55.828;37.488;2022-08-19T01:41:31;18.95;;;8.60;;
22632;SDS011;11483;55.828;37.488;2022-08-19T01:43:57;19.17;;;8.27;;
22632;SDS011;11483;55.828;37.488;2022-08-19T01:46:23;27.77;;;9.32;;
22632;SDS011;11483;55.828;37.488;2022-08-19T01:48:49;26.45;;;9.07;;
22632;SDS011;11483;55.828;37.488;2022-08-19T01:51:15;30.08;;;8.95;;
22632;SDS011;11483;55.828;37.488;2022-08-19T01:53:41;22.08;;;8.57;;
22632;SDS011;11483;55.828;37.488;2022-08-19T01:56:07;23.60;;;9.15;;
22632;SDS011;11483;55.828;37.488;2022-08-19T01:58:35;22.38;;;8.70;;
22632;SDS011;11483;55.828;37.488;2022-08-19T02:01:06;23.45;;;8.77;;
22632;SDS011;11483;55.828;37.488;2022-08-19T02:03:33;19.15;;;8.27;;
22632;SDS011;11483;55.828;37.488;2022-08-19T02:06:02;14.88;;;8.50;;
22632;SDS011;11483;55.828;37.488;2022-08-19T02:08:30;22.63;;;8.95;;
22632;SDS011;11483;55.828;37.488;2022-08-19T02:10:57;23.55;;;8.52;;
22632;SDS011;11483;55.828;37.488;2022-08-19T02:13:24;19.85;;;8.25;;
22632;SDS011;11483;55.828;37.488;2022-08-19T02:15:50;20.38;;;8.00;;
22632;SDS011;11483;55.828;37.488;2022-08-19T02:18:16;26.30;;;8.80;;
22632;SDS011;11483;55.828;37.488;2022-08-19T02:20:43;21.40;;;7.90;;
22632;SDS011;11483;55.828;37.488;2022-08-19T02:23:10;19.83;;;7.70;;
22632;SDS011;11483;55.828;37.488;2022-08-19T02:25:37;16.77;;;7.53;;
22632;SDS011;11483;55.828;37.488;2022-08-19T02:28:03;25.58;;;8.35;;
22632;SDS011;11483;55.828;37.488;2022-08-19T02:30:29;15.70;;;7.45;;
22632;SDS011;11483;55.828;37.488;2022-08-19T02:32:56;17.58;;;7.55;;
22632;SDS011;11483;55.828;37.488;2022-08-19T02:35:23;19.00;;;7.72;;
22632;SDS011;11483;55.828;37.488;2022-08-19T02:37:49;21.38;;;6.95;;
22632;SDS011;11483;55.828;37.488;2022-08-19T02:40:34;21.67;;;7.72;;
22632;SDS011;11483;55.828;37.488;2022-08-19T02:43:04;23.45;;;7.72;;
22632;SDS011;11483;55.828;37.488;2022-08-19T02:45:33;22.02;;;7.60;;
22632;SDS011;11483;55.828;37.488;2022-08-19T02:48:00;20.70;;;7.32;;
22632;SDS011;11483;55.828;37.488;2022-08-19T02:50:26;25.08;;;7.40;;
22632;SDS011;11483;55.828;37.488;2022-08-19T02:52:52;19.35;;;7.65;;
22632;SDS011;11483;55.828;37.488;2022-08-19T02:55:18;20.27;;;7.28;;
22632;SDS011;11483;55.828;37.488;2022-08-19T02:57:46;18.40;;;7.57;;
22632;SDS011;11483;55.828;37.488;2022-08-19T03:00:12;18.92;;;7.70;;
22632;SDS011;11483;55.828;37.488;2022-08-19T03:02:38;18.58;;;7.05;;
22632;SDS011;11483;55.828;37.488;2022-08-19T03:05:05;17.88;;;6.85;;
22632;SDS011;11483;55.828;37.488;2022-08-19T03:07:32;15.15;;;6.72;;
22632;SDS011;11483;55.828;37.488;2022-08-19T03:09:58;16.42;;;6.97;;
22632;SDS011;11483;55.828;37.488;2022-08-19T03:12:24;27.60;;;6.63;;
22632;SDS011;11483;55.828;37.488;2022-08-19T03:14:50;16.83;;;6.93;;
22632;SDS011;11483;55.828;37.488;2022-08-19T03:17:17;23.33;;;6.65;;
22632;SDS011;11483;55.828;37.488;2022-08-19T03:19:42;21.25;;;6.55;;
22632;SDS011;11483;55.828;37.488;2022-08-19T03:22:08;21.02;;;6.78;;
22632;SDS011;11483;55.828;37.488;2022-08-19T03:24:39;16.65;;;6.13;;
22632;SDS011;11483;55.828;37.488;2022-08-19T03:27:08;19.13;;;7.75;;
22632;SDS011;11483;55.828;37.488;2022-08-19T03:29:36;14.27;;;6.32;;
22632;SDS011;11483;55.828;37.488;2022-08-19T03:32:04;16.35;;;6.70;;
22632;SDS011;11483;55.828;37.488;2022-08-19T03:34:31;17.65;;;7.03;;
22632;SDS011;11483;55.828;37.488;2022-08-19T03:36:59;21.00;;;6.80;;
22632;SDS011;11483;55.828;37.488;2022-08-19T03:39:33;18.00;;;6.85;;
22632;SDS011;11483;55.828;37.488;2022-08-19T03:42:01;21.02;;;7.85;;
22632;SDS011;11483;55.828;37.488;2022-08-19T03:44:27;13.98;;;6.32;;
22632;SDS011;11483;55.828;37.488;2022-08-19T03:46:57;23.17;;;7.60;;
22632;SDS011;11483;55.828;37.488;2022-08-19T03:49:25;20.80;;;7.07;;
22632;SDS011;11483;55.828;37.488;2022-08-19T03:51:53;13.52;;;6.57;;
22632;SDS011;11483;55.828;37.488;2022-08-19T03:54:20;20.15;;;6.90;;
22632;SDS011;11483;55.828;37.488;2022-08-19T03:56:51;21.33;;;8.00;;
22632;SDS011;11483;55.828;37.488;2022-08-19T03:59:20;17.38;;;7.10;;
22632;SDS011;11483;55.828;37.488;2022-08-19T04:01:56;24.50;;;6.57;;
22632;SDS011;11483;55.828;37.488;2022-08-19T04:04:23;19.90;;;6.60;;
22632;SDS011;11483;55.828;37.488;2022-08-19T04:06:50;17.92;;;6.78;;
22632;SDS011;11483;55.828;37.488;2022-08-19T04:09:17;20.35;;;6.95;;
22632;SDS011;11483;55.828;37.488;2022-08-19T04:11:46;19.60;;;6.45;;
22632;SDS011;11483;55.828;37.488;2022-08-19T04:14:16;14.30;;;6.20;;
22632;SDS011;11483;55.828;37.488;2022-08-19T04:16:44;17.55;;;6.13;;
22632;SDS011;11483;55.828;37.488;2022-08-19T04:19:12;18.05;;;5.80;;
22632;SDS011;11483;55.828;37.488;2022-08-19T04:21:39;14.68;;;5.68;;
22632;SDS011;11483;55.828;37.488;2022-08-19T04:24:08;14.55;;;6.35;;
22632;SDS011;11483;55.828;37.488;2022-08-19T04:26:35;31.95;;;6.35;;
22632;SDS011;11483;55.828;37.488;2022-08-19T04:29:16;15.02;;;5.30;;
22632;SDS011;11483;55.828;37.488;2022-08-19T04:31:47;12.75;;;5.45;;
22632;SDS011;11483;55.828;37.488;2022-08-19T04:34:15;13.10;;;5.20;;
22632;SDS011;11483;55.828;37.488;2022-08-19T04:36:43;10.13;;;5.07;;
22632;SDS011;11483;55.828;37.488;2022-08-19T04:39:12;17.63;;;6.10;;
22632;SDS011;11483;55.828;37.488;2022-08-19T04:41:40;11.07;;;5.50;;
22632;SDS011;11483;55.828;37.488;2022-08-19T04:44:24;12.88;;;5.38;;
22632;SDS011;11483;55.828;37.488;2022-08-19T04:46:51;13.93;;;5.28;;
22632;SDS011;11483;55.828;37.488;2022-08-19T04:49:18;13.90;;;5.90;;
22632;SDS011;11483;55.828;37.488;2022-08-19T04:51:46;18.17;;;5.13;;
22632;SDS011;11483;55.828;37.488;2022-08-19T04:54:14;19.27;;;5.22;;
22632;SDS011;11483;55.828;37.488;2022-08-19T04:56:40;18.20;;;5.03;;
22632;SDS011;11483;55.828;37.488;2022-08-19T04:59:07;19.45;;;5.65;;
22632;SDS011;11483;55.828;37.488;2022-08-19T05:01:34;14.65;;;4.95;;
22632;SDS011;11483;55.828;37.488;2022-08-19T05:04:02;19.35;;;4.60;;
22632;SDS011;11483;55.828;37.488;2022-08-19T05:06:30;19.58;;;5.03;;
22632;SDS011;11483;55.828;37.488;2022-08-19T05:08:59;11.52;;;4.65;;
22632;SDS011;11483;55.828;37.488;2022-08-19T05:11:29;11.32;;;4.80;;
22632;SDS011;11483;55.828;37.488;2022-08-19T05:14:01;15.60;;;4.80;;
22632;SDS011;11483;55.828;37.488;2022-08-19T05:16:27;12.07;;;4.50;;
22632;SDS011;11483;55.828;37.488;2022-08-19T05:18:53;21.63;;;5.15;;
22632;SDS011;11483;55.828;37.488;2022-08-19T05:21:39;12.57;;;4.63;;
22632;SDS011;11483;55.828;37.488;2022-08-19T05:24:24;12.35;;;4.68;;
22632;SDS011;11483;55.828;37.488;2022-08-19T05:26:51;9.93;;;4.70;;
22632;SDS011;11483;55.828;37.488;2022-08-19T05:29:19;14.43;;;4.68;;
22632;SDS011;11483;55.828;37.488;2022-08-19T05:31:47;13.70;;;4.30;;
22632;SDS011;11483;55.828;37.488;2022-08-19T05:34:17;8.10;;;4.13;;
22632;SDS011;11483;55.828;37.488;2022-08-19T05:36:46;15.68;;;4.95;;
22632;SDS011;11483;55.828;37.488;2022-08-19T05:39:15;15.05;;;4.55;;
22632;SDS011;11483;55.828;37.488;2022-08-19T05:41:49;10.57;;;4.10;;
22632;SDS011;11483;55.828;37.488;2022-08-19T05:44:17;15.40;;;3.90;;
22632;SDS011;11483;55.828;37.488;2022-08-19T05:46:45;6.00;;;4.28;;
22632;SDS011;11483;55.828;37.488;2022-08-19T05:49:15;14.00;;;4.30;;
22632;SDS011;11483;55.828;37.488;2022-08-19T05:51:41;11.43;;;5.13;;
22632;SDS011;11483;55.828;37.488;2022-08-19T05:54:07;18.42;;;4.40;;
22632;SDS011;11483;55.828;37.488;2022-08-19T05:56:34;14.80;;;4.72;;
22632;SDS011;11483;55.828;37.488;2022-08-19T05:59:03;10.05;;;4.43;;
22632;SDS011;11483;55.828;37.488;2022-08-19T06:01:35;7.75;;;4.55;;
22632;SDS011;11483;55.828;37.488;2022-08-19T06:04:02;17.35;;;4.45;;
22632;SDS011;11483;55.828;37.488;2022-08-19T06:06:28;15.27;;;4.38;;
22632;SDS011;11483;55.828;37.488;2022-08-19T06:08:54;13.13;;;4.47;;
22632;SDS011;11483;55.828;37.488;2022-08-19T06:11:22;20.40;;;4.30;;
22632;SDS011;11483;55.828;37.488;2022-08-19T06:14:09;15.90;;;4.65;;
22632;SDS011;11483;55.828;37.488;2022-08-19T06:16:46;10.68;;;4.85;;
22632;SDS011;11483;55.828;37.488;2022-08-19T06:19:15;7.57;;;4.38;;
22632;SDS011;11483;55.828;37.488;2022-08-19T06:21:43;16.83;;;4.50;;
22632;SDS011;11483;55.828;37.488;2022-08-19T06:24:12;18.90;;;5.00;;
22632;SDS011;11483;55.828;37.488;2022-08-19T06:26:42;18.27;;;4.68;;
22632;SDS011;11483;55.828;37.488;2022-08-19T06:29:10;13.32;;;4.63;;
22632;SDS011;11483;55.828;37.488;2022-08-19T06:31:40;10.20;;;5.07;;
22632;SDS011;11483;55.828;37.488;2022-08-19T06:34:08;15.48;;;5.45;;
22632;SDS011;11483;55.828;37.488;2022-08-19T06:36:36;22.48;;;6.47;;
22632;SDS011;11483;55.828;37.488;2022-08-19T06:39:12;13.77;;;4.90;;
22632;SDS011;11483;55.828;37.488;2022-08-19T06:41:41;14.68;;;5.63;;
22632;SDS011;11483;55.828;37.488;2022-08-19T06:44:09;10.85;;;4.93;;
22632;SDS011;11483;55.828;37.488;2022-08-19T06:46:36;24.63;;;5.75;;
22632;SDS011;11483;55.828;37.488;2022-08-19T06:49:03;17.08;;;4.55;;
22632;SDS011;11483;55.828;37.488;2022-08-19T06:51:30;9.88;;;4.57;;
22632;SDS011;11483;55.828;37.488;2022-08-19T06:53:59;26.48;;;5.18;;
22632;SDS011;11483;55.828;37.488;2022-08-19T06:56:26;15.25;;;4.65;;
22632;SDS011;11483;55.828;37.488;2022-08-19T06:58:59;19.60;;;4.40;;
22632;SDS011;11483;55.828;37.488;2022-08-19T07:01:26;12.15;;;4.72;;
22632;SDS011;11483;55.828;37.488;2022-08-19T07:03:52;22.00;;;4.43;;
22632;SDS011;11483;55.828;37.488;2022-08-19T07:06:19;10.43;;;4.57;;
22632;SDS011;11483;55.828;37.488;2022-08-19T07:08:45;19.27;;;5.68;;
22632;SDS011;11483;55.828;37.488;2022-08-19T07:11:13;10.23;;;4.40;;
22632;SDS011;11483;55.828;37.488;2022-08-19T07:13:42;20.77;;;5.03;;
22632;SDS011;11483;55.828;37.488;2022-08-19T07:16:12;13.27;;;4.45;;
22632;SDS011;11483;55.828;37.488;2022-08-19T07:18:40;13.13;;;4.53;;
22632;SDS011;11483;55.828;37.488;2022-08-19T07:21:07;11.48;;;4.47;;
22632;SDS011;11483;55.828;37.488;2022-08-19T07:23:37;14.00;;;4.80;;
22632;SDS011;11483;55.828;37.488;2022-08-19T07:26:22;11.65;;;4.22;;
22632;SDS011;11483;55.828;37.488;2022-08-19T07:29:07;10.40;;;4.43;;
22632;SDS011;11483;55.828;37.488;2022-08-19T07:31:33;12.82;;;4.90;;
22632;SDS011;11483;55.828;37.488;2022-08-19T07:34:02;15.20;;;4.32;;
22632;SDS011;11483;55.828;37.488;2022-08-19T07:36:32;9.50;;;3.83;;
22632;SDS011;11483;55.828;37.488;2022-08-19T07:39:02;13.07;;;4.05;;
22632;SDS011;11483;55.828;37.488;2022-08-19T07:41:31;5.07;;;3.90;;
22632;SDS011;11483;55.828;37.488;2022-08-19T07:43:58;11.07;;;3.90;;
22632;SDS011;11483;55.828;37.488;2022-08-19T07:46:32;19.42;;;4.57;;
22632;SDS011;11483;55.828;37.488;2022-08-19T07:48:58;13.55;;;4.15;;
22632;SDS011;11483;55.828;37.488;2022-08-19T07:51:25;11.52;;;4.32;;
22632;SDS011;11483;55.828;37.488;2022-08-19T07:53:53;11.10;;;4.53;;
22632;SDS011;11483;55.828;37.488;2022-08-19T07:56:19;11.98;;;3.95;;
22632;SDS011;11483;55.828;37.488;2022-08-19T07:58:47;12.68;;;3.60;;
22632;SDS011;11483;55.828;37.488;2022-08-19T08:01:16;10.02;;;3.70;;
22632;SDS011;11483;55.828;37.488;2022-08-19T08:03:45;12.88;;;3.50;;
22632;SDS011;11483;55.828;37.488;2022-08-19T08:06:40;20.70;;;4.00;;
22632;SDS011;11483;55.828;37.488;2022-08-19T08:09:27;11.60;;;3.90;;
22632;SDS011;11483;55.828;37.488;2022-08-19T08:14:32;11.77;;;3.28;;
22632;SDS011;11483;55.828;37.488;2022-08-19T08:17:00;9.02;;;3.58;;
22632;SDS011;11483;55.828;37.488;2022-08-19T08:19:27;8.93;;;3.33;;
22632;SDS011;11483;55.828;37.488;2022-08-19T08:21:54;8.00;;;3.40;;
22632;SDS011;11483;55.828;37.488;2022-08-19T08:24:28;8.85;;;3.40;;
22632;SDS011;11483;55.828;37.488;2022-08-19T08:26:59;10.57;;;3.78;;
22632;SDS011;11483;55.828;37.488;2022-08-19T08:29:27;15.80;;;4.57;;
22632;SDS011;11483;55.828;37.488;2022-08-19T08:31:54;12.75;;;4.00;;
22632;SDS011;11483;55.828;37.488;2022-08-19T08:34:20;14.23;;;3.72;;
22632;SDS011;11483;55.828;37.488;2022-08-19T08:36:47;12.82;;;4.18;;
22632;SDS011;11483;55.828;37.488;2022-08-19T08:39:14;16.50;;;4.30;;
22632;SDS011;11483;55.828;37.488;2022-08-19T08:44:26;12.25;;;4.25;;
22632;SDS011;11483;55.828;37.488;2022-08-19T08:47:03;22.05;;;4.82;;
22632;SDS011;11483;55.828;37.488;2022-08-19T08:49:48;10.40;;;4.18;;
22632;SDS011;11483;55.828;37.488;2022-08-19T08:52:29;9.25;;;4.35;;
22632;SDS011;11483;55.828;37.488;2022-08-19T08:55:03;15.80;;;4.35;;
22632;SDS011;11483;55.828;37.488;2022-08-19T09:00:15;6.88;;;3.95;;
22632;SDS011;11483;55.828;37.488;2022-08-19T09:09:09;13.73;;;4.65;;
22632;SDS011;11483;55.828;37.488;2022-08-19T09:11:50;17.35;;;4.85;;
22632;SDS011;11483;55.828;37.488;2022-08-19T09:17:30;17.65;;;4.90;;
22632;SDS011;11483;55.828;37.488;2022-08-19T09:22:36;13.82;;;4.68;;
22632;SDS011;11483;55.828;37.488;2022-08-19T09:25:03;11.70;;;4.35;;
22632;SDS011;11483;55.828;37.488;2022-08-19T09:27:30;8.60;;;4.25;;
22632;SDS011;11483;55.828;37.488;2022-08-19T09:29:57;13.57;;;4.63;;
22632;SDS011;11483;55.828;37.488;2022-08-19T09:32:23;14.02;;;4.78;;
22632;SDS011;11483;55.828;37.488;2022-08-19T09:34:52;13.32;;;4.15;;
22632;SDS011;11483;55.828;37.488;2022-08-19T09:37:23;12.20;;;4.18;;
22632;SDS011;11483;55.828;37.488;2022-08-19T09:39:50;8.98;;;3.95;;
22632;SDS011;11483;55.828;37.488;2022-08-19T09:42:16;11.07;;;4.10;;
22632;SDS011;11483;55.828;37.488;2022-08-19T09:44:42;10.05;;;4.60;;
22632;SDS011;11483;55.828;37.488;2022-08-19T09:47:09;6.32;;;3.42;;
22632;SDS011;11483;55.828;37.488;2022-08-19T09:49:36;18.65;;;4.18;;
22632;SDS011;11483;55.828;37.488;2022-08-19T09:52:04;11.57;;;3.70;;
22632;SDS011;11483;55.828;37.488;2022-08-19T09:54:34;7.55;;;3.92;;
22632;SDS011;11483;55.828;37.488;2022-08-19T09:57:00;6.68;;;3.70;;
22632;SDS011;11483;55.828;37.488;2022-08-19T09:59:26;13.35;;;4.90;;
22632;SDS011;11483;55.828;37.488;2022-08-19T10:01:53;12.68;;;4.15;;
22632;SDS011;11483;55.828;37.488;2022-08-19T10:04:19;10.02;;;3.67;;
22632;SDS011;11483;55.828;37.488;2022-08-19T10:06:46;7.30;;;3.50;;
22632;SDS011;11483;55.828;37.488;2022-08-19T10:09:13;9.27;;;3.72;;
22632;SDS011;11483;55.828;37.488;2022-08-19T10:11:41;16.80;;;4.38;;
22632;SDS011;11483;55.828;37.488;2022-08-19T10:14:11;9.70;;;4.28;;
22632;SDS011;11483;55.828;37.488;2022-08-19T10:16:37;6.82;;;4.30;;
22632;SDS011;11483;55.828;37.488;2022-08-19T10:19:04;14.48;;;4.50;;
22632;SDS011;11483;55.828;37.488;2022-08-19T10:21:31;10.82;;;4.07;;
22632;SDS011;11483;55.828;37.488;2022-08-19T10:23:58;9.00;;;4.10;;
22632;SDS011;11483;55.828;37.488;2022-08-19T10:26:27;10.20;;;4.38;;
22632;SDS011;11483;55.828;37.488;2022-08-19T10:28:56;10.05;;;4.88;;
22632;SDS011;11483;55.828;37.488;2022-08-19T10:31:23;8.85;;;4.32;;
22632;SDS011;11483;55.828;37.488;2022-08-19T10:33:51;20.33;;;4.90;;
22632;SDS011;11483;55.828;37.488;2022-08-19T10:36:23;24.13;;;4.63;;
22632;SDS011;11483;55.828;37.488;2022-08-19T10:38:51;12.73;;;4.40;;
22632;SDS011;11483;55.828;37.488;2022-08-19T10:41:23;17.05;;;4.75;;
22632;SDS011;11483;55.828;37.488;2022-08-19T10:43:51;13.43;;;5.18;;
22632;SDS011;11483;55.828;37.488;2022-08-19T10:46:20;11.77;;;4.95;;
22632;SDS011;11483;55.828;37.488;2022-08-19T10:48:48;12.63;;;4.75;;
22632;SDS011;11483;55.828;37.488;2022-08-19T10:51:14;9.40;;;5.05;;
22632;SDS011;11483;55.828;37.488;2022-08-19T10:53:58;15.07;;;5.53;;
22632;SDS011;11483;55.828;37.488;2022-08-19T10:56:25;17.45;;;5.22;;
22632;SDS011;11483;55.828;37.488;2022-08-19T10:59:13;17.65;;;4.70;;
22632;SDS011;11483;55.828;37.488;2022-08-19T11:01:40;13.48;;;4.30;;
22632;SDS011;11483;55.828;37.488;2022-08-19T11:04:07;12.23;;;4.40;;
22632;SDS011;11483;55.828;37.488;2022-08-19T11:06:37;18.42;;;4.32;;
22632;SDS011;11483;55.828;37.488;2022-08-19T11:09:04;17.73;;;3.50;;
22632;SDS011;11483;55.828;37.488;2022-08-19T11:11:31;20.92;;;3.40;;
22632;SDS011;11483;55.828;37.488;2022-08-19T11:14:10;16.58;;;3.03;;
22632;SDS011;11483;55.828;37.488;2022-08-19T11:16:38;10.93;;;3.10;;
22632;SDS011;11483;55.828;37.488;2022-08-19T11:19:05;9.02;;;2.92;;
22632;SDS011;11483;55.828;37.488;2022-08-19T11:21:37;13.27;;;3.05;;
22632;SDS011;11483;55.828;37.488;2022-08-19T11:24:09;18.17;;;3.58;;
22632;SDS011;11483;55.828;37.488;2022-08-19T11:26:37;8.80;;;3.15;;
22632;SDS011;11483;55.828;37.488;2022-08-19T11:29:04;10.45;;;3.58;;
22632;SDS011;11483;55.828;37.488;2022-08-19T11:31:32;6.15;;;2.55;;
22632;SDS011;11483;55.828;37.488;2022-08-19T11:34:02;10.68;;;3.28;;
22632;SDS011;11483;55.828;37.488;2022-08-19T11:36:29;16.92;;;3.20;;
22632;SDS011;11483;55.828;37.488;2022-08-19T11:38:57;21.70;;;3.45;;
22632;SDS011;11483;55.828;37.488;2022-08-19T11:41:24;13.50;;;3.65;;
22632;SDS011;11483;55.828;37.488;2022-08-19T11:43:51;10.57;;;4.18;;
22632;SDS011;11483;55.828;37.488;2022-08-19T11:46:20;10.95;;;3.65;;
22632;SDS011;11483;55.828;37.488;2022-08-19T11:48:47;8.38;;;3.90;;
22632;SDS011;11483;55.828;37.488;2022-08-19T11:51:16;21.90;;;4.57;;
22632;SDS011;11483;55.828;37.488;2022-08-19T11:53:45;17.08;;;3.55;;
22632;SDS011;11483;55.828;37.488;2022-08-19T11:56:12;26.73;;;3.92;;
22632;SDS011;11483;55.828;37.488;2022-08-19T11:58:38;20.55;;;3.38;;
22632;SDS011;11483;55.828;37.488;2022-08-19T12:01:05;11.45;;;4.28;;
22632;SDS011;11483;55.828;37.488;2022-08-19T12:03:32;11.55;;;3.10;;
22632;SDS011;11483;55.828;37.488;2022-08-19T12:06:02;6.90;;;3.00;;
22632;SDS011;11483;55.828;37.488;2022-08-19T12:08:32;9.45;;;3.20;;
22632;SDS011;11483;55.828;37.488;2022-08-19T12:10:57;7.15;;;3.53;;
22632;SDS011;11483;55.828;37.488;2022-08-19T12:13:26;15.02;;;3.00;;
22632;SDS011;11483;55.828;37.488;2022-08-19T12:15:53;11.95;;;3.42;;
22632;SDS011;11483;55.828;37.488;2022-08-19T12:18:19;13.68;;;3.05;;
22632;SDS011;11483;55.828;37.488;2022-08-19T12:20:45;5.65;;;3.00;;
22632;SDS011;11483;55.828;37.488;2022-08-19T12:23:12;12.57;;;2.97;;
22632;SDS011;11483;55.828;37.488;2022-08-19T12:25:49;6.30;;;3.10;;
22632;SDS011;11483;55.828;37.488;2022-08-19T12:28:21;7.35;;;3.40;;
22632;SDS011;11483;55.828;37.488;2022-08-19T12:30:48;12.63;;;3.22;;
22632;SDS011;11483;55.828;37.488;2022-08-19T12:33:16;6.00;;;2.85;;
22632;SDS011;11483;55.828;37.488;2022-08-19T12:35:43;16.98;;;3.05;;
22632;SDS011;11483;55.828;37.488;2022-08-19T12:38:11;10.32;;;2.88;;
22632;SDS011;11483;55.828;37.488;2022-08-19T12:40:38;6.55;;;2.72;;
22632;SDS011;11483;55.828;37.488;2022-08-19T12:43:05;11.05;;;3.10;;
22632;SDS011;11483;55.828;37.488;2022-08-19T12:45:32;10.25;;;2.83;;
22632;SDS011;11483;55.828;37.488;2022-08-19T12:47:58;5.57;;;2.50;;
22632;SDS011;11483;55.828;37.488;2022-08-19T12:50:24;7.70;;;2.83;;
22632;SDS011;11483;55.828;37.488;2022-08-19T12:52:50;5.85;;;2.90;;
22632;SDS011;11483;55.828;37.488;2022-08-19T12:55:16;14.20;;;3.15;;
22632;SDS011;11483;55.828;37.488;2022-08-19T12:57:44;6.40;;;2.80;;
22632;SDS011;11483;55.828;37.488;2022-08-19T13:00:15;14.35;;;3.15;;
22632;SDS011;11483;55.828;37.488;2022-08-19T13:02:44;7.57;;;3.13;;
22632;SDS011;11483;55.828;37.488;2022-08-19T13:05:15;15.07;;;3.10;;
22632;SDS011;11483;55.828;37.488;2022-08-19T13:07:45;12.40;;;3.22;;
22632;SDS011;11483;55.828;37.488;2022-08-19T13:10:12;15.88;;;3.15;;
22632;SDS011;11483;55.828;37.488;2022-08-19T13:12:40;8.15;;;2.92;;
22632;SDS011;11483;55.828;37.488;2022-08-19T13:15:07;12.82;;;3.33;;
22632;SDS011;11483;55.828;37.488;2022-08-19T13:17:34;15.70;;;4.35;;
22632;SDS011;11483;55.828;37.488;2022-08-19T13:20:00;16.10;;;4.05;;
22632;SDS011;11483;55.828;37.488;2022-08-19T13:22:27;14.30;;;3.97;;
22632;SDS011;11483;55.828;37.488;2022-08-19T13:24:53;16.20;;;3.63;;
22632;SDS011;11483;55.828;37.488;2022-08-19T13:27:18;12.52;;;3.42;;
22632;SDS011;11483;55.828;37.488;2022-08-19T13:29:44;12.90;;;3.63;;
22632;SDS011;11483;55.828;37.488;2022-08-19T13:32:29;8.23;;;3.30;;
22632;SDS011;11483;55.828;37.488;2022-08-19T13:35:14;11.93;;;3.58;;
22632;SDS011;11483;55.828;37.488;2022-08-19T13:37:41;11.88;;;3.60;;
22632;SDS011;11483;55.828;37.488;2022-08-19T13:42:47;9.00;;;3.45;;
22632;SDS011;11483;55.828;37.488;2022-08-19T13:45:21;8.32;;;4.10;;
22632;SDS011;11483;55.828;37.488;2022-08-19T13:47:50;8.60;;;3.88;;
22632;SDS011;11483;55.828;37.488;2022-08-19T13:50:21;6.72;;;3.45;;
22632;SDS011;11483;55.828;37.488;2022-08-19T13:52:51;19.73;;;3.50;;
22632;SDS011;11483;55.828;37.488;2022-08-19T13:55:18;12.70;;;3.42;;
22632;SDS011;11483;55.828;37.488;2022-08-19T13:57:45;15.80;;;3.40;;
22632;SDS011;11483;55.828;37.488;2022-08-19T14:00:15;9.32;;;3.22;;
22632;SDS011;11483;55.828;37.488;2022-08-19T14:02:43;15.77;;;3.13;;
22632;SDS011;11483;55.828;37.488;2022-08-19T14:05:11;12.43;;;3.50;;
22632;SDS011;11483;55.828;37.488;2022-08-19T14:07:39;10.02;;;3.50;;
22632;SDS011;11483;55.828;37.488;2022-08-19T14:10:06;7.57;;;3.22;;
22632;SDS011;11483;55.828;37.488;2022-08-19T14:12:34;13.23;;;3.72;;
22632;SDS011;11483;55.828;37.488;2022-08-19T14:15:00;12.52;;;3.80;;
22632;SDS011;11483;55.828;37.488;2022-08-19T14:17:28;12.07;;;3.28;;
22632;SDS011;11483;55.828;37.488;2022-08-19T14:20:00;7.70;;;4.00;;
22632;SDS011;11483;55.828;37.488;2022-08-19T14:22:35;12.75;;;3.70;;
22632;SDS011;11483;55.828;37.488;2022-08-19T14:25:02;17.92;;;3.40;;
22632;SDS011;11483;55.828;37.488;2022-08-19T14:27:29;19.15;;;3.83;;
22632;SDS011;11483;55.828;37.488;2022-08-19T14:29:55;17.23;;;3.50;;
22632;SDS011;11483;55.828;37.488;2022-08-19T14:32:20;15.05;;;3.80;;
22632;SDS011;11483;55.828;37.488;2022-08-19T14:34:46;24.88;;;4.22;;
22632;SDS011;11483;55.828;37.488;2022-08-19T14:37:13;10.57;;;3.72;;
22632;SDS011;11483;55.828;37.488;2022-08-19T14:39:40;6.22;;;3.40;;
22632;SDS011;11483;55.828;37.488;2022-08-19T14:42:07;8.25;;;3.58;;
22632;SDS011;11483;55.828;37.488;2022-08-19T14:44:34;6.28;;;3.78;;
22632;SDS011;11483;55.828;37.488;2022-08-19T14:47:00;11.27;;;4.15;;
22632;SDS011;11483;55.828;37.488;2022-08-19T14:49:26;12.90;;;7.00;;
22632;SDS011;11483;55.828;37.488;2022-08-19T14:51:52;17.95;;;7.30;;
22632;SDS011;11483;55.828;37.488;2022-08-19T14:54:17;13.48;;;7.50;;
22632;SDS011;11483;55.828;37.488;2022-08-19T14:56:44;16.85;;;7.90;;
22632;SDS011;11483;55.828;37.488;2022-08-19T14:59:10;18.08;;;7.43;;
22632;SDS011;11483;55.828;37.488;2022-08-19T15:01:36;25.60;;;8.27;;